sensor_id;sensor_type;location;lat;lon;timestamp;P1;durP1;ratioP1;P2;durP2;ratioP2
13566;SDS011;6855;48.112;11.298;2024-03-23T00:52:36;3.03;;;1.57;;
13566;SDS011;6855;48.112;11.298;2024-03-23T00:55:02;3.73;;;1.17;;
13566;SDS011;6855;48.112;11.298;2024-03-23T00:57:29;2.80;;;1.60;;
13566;SDS011;6855;48.112;11.298;2024-03-23T00:59:55;3.60;;;1.60;;
13566;SDS011;6855;48.112;11.298;2024-03-23T01:02:23;3.33;;;1.43;;
13566;SDS011;6855;48.112;11.298;2024-03-23T01:04:49;2.80;;;1.30;;
13566;SDS011;6855;48.112;11.298;2024-03-23T01:07:16;3.57;;;1.87;;
13566;SDS011;6855;48.112;11.298;2024-03-23T01:09:43;2.40;;;1.73;;
13566;SDS011;6855;48.112;11.298;2024-03-23T01:12:11;1.23;;;1.10;;
13566;SDS011;6855;48.112;11.298;2024-03-23T01:14:37;2.43;;;1.40;;
13566;SDS011;6855;48.112;11.298;2024-03-23T01:17:04;4.47;;;1.20;;
13566;SDS011;6855;48.112;11.298;2024-03-23T01:19:30;2.03;;;1.40;;
13566;SDS011;6855;48.112;11.298;2024-03-23T01:21:57;2.00;;;1.53;;
13566;SDS011;6855;48.112;11.298;2024-03-23T01:24:24;1.77;;;1.30;;
13566;SDS011;6855;48.112;11.298;2024-03-23T01:26:52;3.93;;;1.50;;
13566;SDS011;6855;48.112;11.298;2024-03-23T01:29:19;1.60;;;1.17;;
13566;SDS011;6855;48.112;11.298;2024-03-23T01:31:46;2.00;;;1.40;;
13566;SDS011;6855;48.112;11.298;2024-03-23T01:34:12;11.73;;;1.63;;
13566;SDS011;6855;48.112;11.298;2024-03-23T01:36:39;3.43;;;1.40;;
13566;SDS011;6855;48.112;11.298;2024-03-23T01:39:05;2.30;;;1.30;;
13566;SDS011;6855;48.112;11.298;2024-03-23T01:41:34;3.33;;;1.90;;
13566;SDS011;6855;48.112;11.298;2024-03-23T01:44:04;1.57;;;1.47;;
13566;SDS011;6855;48.112;11.298;2024-03-23T01:46:32;2.07;;;1.80;;
13566;SDS011;6855;48.112;11.298;2024-03-23T01:48:58;1.80;;;1.27;;
13566;SDS011;6855;48.112;11.298;2024-03-23T01:51:26;5.33;;;1.37;;
13566;SDS011;6855;48.112;11.298;2024-03-23T01:53:53;2.50;;;1.70;;
13566;SDS011;6855;48.112;11.298;2024-03-23T01:56:21;2.50;;;1.50;;
13566;SDS011;6855;48.112;11.298;2024-03-23T01:58:47;2.13;;;1.37;;
13566;SDS011;6855;48.112;11.298;2024-03-23T02:01:16;1.53;;;1.43;;
13566;SDS011;6855;48.112;11.298;2024-03-23T02:03:42;3.60;;;1.37;;
13566;SDS011;6855;48.112;11.298;2024-03-23T02:06:09;2.83;;;1.60;;
13566;SDS011;6855;48.112;11.298;2024-03-23T02:08:36;2.53;;;1.63;;
13566;SDS011;6855;48.112;11.298;2024-03-23T02:11:03;6.10;;;1.87;;
13566;SDS011;6855;48.112;11.298;2024-03-23T02:13:29;1.67;;;1.33;;
13566;SDS011;6855;48.112;11.298;2024-03-23T02:15:56;2.30;;;1.83;;
13566;SDS011;6855;48.112;11.298;2024-03-23T02:18:24;2.70;;;1.73;;
13566;SDS011;6855;48.112;11.298;2024-03-23T02:20:52;2.00;;;1.50;;
13566;SDS011;6855;48.112;11.298;2024-03-23T02:23:19;1.87;;;1.23;;
13566;SDS011;6855;48.112;11.298;2024-03-23T02:25:46;4.20;;;1.63;;
13566;SDS011;6855;48.112;11.298;2024-03-23T02:28:12;4.80;;;1.53;;
13566;SDS011;6855;48.112;11.298;2024-03-23T02:30:40;2.00;;;1.40;;
13566;SDS011;6855;48.112;11.298;2024-03-23T02:33:06;1.93;;;1.40;;
13566;SDS011;6855;48.112;11.298;2024-03-23T02:35:33;2.60;;;1.37;;
13566;SDS011;6855;48.112;11.298;2024-03-23T02:37:59;3.53;;;1.67;;
13566;SDS011;6855;48.112;11.298;2024-03-23T02:40:28;2.00;;;1.20;;
13566;SDS011;6855;48.112;11.298;2024-03-23T02:42:55;2.03;;;1.47;;
13566;SDS011;6855;48.112;11.298;2024-03-23T02:45:22;2.20;;;1.60;;
13566;SDS011;6855;48.112;11.298;2024-03-23T02:47:48;1.60;;;1.47;;
13566;SDS011;6855;48.112;11.298;2024-03-23T02:50:17;4.30;;;1.50;;
13566;SDS011;6855;48.112;11.298;2024-03-23T02:52:43;1.50;;;1.30;;
13566;SDS011;6855;48.112;11.298;2024-03-23T02:55:10;1.93;;;1.70;;
13566;SDS011;6855;48.112;11.298;2024-03-23T02:57:38;4.97;;;1.50;;
13566;SDS011;6855;48.112;11.298;2024-03-23T03:00:05;1.80;;;1.20;;
13566;SDS011;6855;48.112;11.298;2024-03-23T03:02:32;3.93;;;1.60;;
13566;SDS011;6855;48.112;11.298;2024-03-23T03:04:59;2.17;;;1.77;;
13566;SDS011;6855;48.112;11.298;2024-03-23T03:07:25;3.13;;;1.77;;
13566;SDS011;6855;48.112;11.298;2024-03-23T03:09:53;1.67;;;1.27;;
13566;SDS011;6855;48.112;11.298;2024-03-23T03:12:19;3.17;;;2.20;;
13566;SDS011;6855;48.112;11.298;2024-03-23T03:14:47;2.73;;;1.57;;
13566;SDS011;6855;48.112;11.298;2024-03-23T03:17:13;3.00;;;1.97;;
13566;SDS011;6855;48.112;11.298;2024-03-23T03:19:41;3.73;;;1.87;;
13566;SDS011;6855;48.112;11.298;2024-03-23T03:22:07;2.30;;;1.40;;
13566;SDS011;6855;48.112;11.298;2024-03-23T03:24:34;1.50;;;1.40;;
13566;SDS011;6855;48.112;11.298;2024-03-23T03:27:00;4.03;;;1.70;;
13566;SDS011;6855;48.112;11.298;2024-03-23T03:29:28;2.33;;;1.50;;
13566;SDS011;6855;48.112;11.298;2024-03-23T03:32:01;2.13;;;1.80;;
13566;SDS011;6855;48.112;11.298;2024-03-23T03:34:29;2.20;;;1.50;;
13566;SDS011;6855;48.112;11.298;2024-03-23T03:36:56;2.67;;;1.63;;
13566;SDS011;6855;48.112;11.298;2024-03-23T03:39:23;3.50;;;1.40;;
13566;SDS011;6855;48.112;11.298;2024-03-23T03:41:49;2.40;;;1.50;;
13566;SDS011;6855;48.112;11.298;2024-03-23T03:44:16;3.40;;;1.57;;
13566;SDS011;6855;48.112;11.298;2024-03-23T03:46:43;1.80;;;1.50;;
13566;SDS011;6855;48.112;11.298;2024-03-23T03:49:13;2.97;;;1.60;;
13566;SDS011;6855;48.112;11.298;2024-03-23T03:51:40;3.77;;;1.63;;
13566;SDS011;6855;48.112;11.298;2024-03-23T03:54:07;3.20;;;1.90;;
13566;SDS011;6855;48.112;11.298;2024-03-23T03:56:33;2.03;;;1.30;;
13566;SDS011;6855;48.112;11.298;2024-03-23T03:59:01;1.70;;;1.40;;
13566;SDS011;6855;48.112;11.298;2024-03-23T04:01:27;1.60;;;1.50;;
13566;SDS011;6855;48.112;11.298;2024-03-23T04:03:54;1.43;;;1.30;;
13566;SDS011;6855;48.112;11.298;2024-03-23T04:06:22;1.33;;;1.07;;
13566;SDS011;6855;48.112;11.298;2024-03-23T04:08:49;1.67;;;1.43;;
13566;SDS011;6855;48.112;11.298;2024-03-23T04:11:15;2.50;;;1.43;;
13566;SDS011;6855;48.112;11.298;2024-03-23T04:13:42;1.33;;;1.23;;
13566;SDS011;6855;48.112;11.298;2024-03-23T04:16:09;2.87;;;1.37;;
13566;SDS011;6855;48.112;11.298;2024-03-23T04:18:36;3.00;;;1.37;;
13566;SDS011;6855;48.112;11.298;2024-03-23T04:21:03;3.83;;;1.43;;
13566;SDS011;6855;48.112;11.298;2024-03-23T04:23:31;9.30;;;1.93;;
13566;SDS011;6855;48.112;11.298;2024-03-23T04:26:02;1.60;;;1.17;;
13566;SDS011;6855;48.112;11.298;2024-03-23T04:28:30;1.60;;;1.20;;
13566;SDS011;6855;48.112;11.298;2024-03-23T04:30:56;2.43;;;1.00;;
13566;SDS011;6855;48.112;11.298;2024-03-23T04:33:23;3.60;;;1.27;;
13566;SDS011;6855;48.112;11.298;2024-03-23T04:35:50;7.03;;;1.90;;
13566;SDS011;6855;48.112;11.298;2024-03-23T04:38:17;2.70;;;1.20;;
13566;SDS011;6855;48.112;11.298;2024-03-23T04:40:47;1.43;;;1.10;;
13566;SDS011;6855;48.112;11.298;2024-03-23T04:43:20;1.50;;;1.20;;
13566;SDS011;6855;48.112;11.298;2024-03-23T04:45:47;1.60;;;1.20;;
13566;SDS011;6855;48.112;11.298;2024-03-23T04:48:15;2.20;;;1.23;;
13566;SDS011;6855;48.112;11.298;2024-03-23T04:50:42;3.67;;;1.20;;
13566;SDS011;6855;48.112;11.298;2024-03-23T04:53:09;5.27;;;1.40;;
13566;SDS011;6855;48.112;11.298;2024-03-23T04:55:36;1.67;;;1.20;;
13566;SDS011;6855;48.112;11.298;2024-03-23T04:58:05;1.77;;;1.30;;
13566;SDS011;6855;48.112;11.298;2024-03-23T05:00:31;2.50;;;1.30;;
13566;SDS011;6855;48.112;11.298;2024-03-23T05:02:58;2.33;;;1.20;;
13566;SDS011;6855;48.112;11.298;2024-03-23T05:05:27;1.50;;;1.30;;
13566;SDS011;6855;48.112;11.298;2024-03-23T05:07:55;2.60;;;1.23;;
13566;SDS011;6855;48.112;11.298;2024-03-23T05:10:21;1.93;;;1.10;;
13566;SDS011;6855;48.112;11.298;2024-03-23T05:12:48;4.73;;;1.20;;
13566;SDS011;6855;48.112;11.298;2024-03-23T05:15:16;3.53;;;1.30;;
13566;SDS011;6855;48.112;11.298;2024-03-23T05:17:43;5.30;;;1.20;;
13566;SDS011;6855;48.112;11.298;2024-03-23T05:20:11;1.83;;;1.07;;
13566;SDS011;6855;48.112;11.298;2024-03-23T05:22:39;2.30;;;1.33;;
13566;SDS011;6855;48.112;11.298;2024-03-23T05:25:05;1.33;;;1.20;;
13566;SDS011;6855;48.112;11.298;2024-03-23T05:27:34;1.57;;;1.17;;
13566;SDS011;6855;48.112;11.298;2024-03-23T05:30:01;1.20;;;1.07;;
13566;SDS011;6855;48.112;11.298;2024-03-23T05:32:30;1.80;;;1.70;;
13566;SDS011;6855;48.112;11.298;2024-03-23T05:34:56;1.37;;;1.17;;
13566;SDS011;6855;48.112;11.298;2024-03-23T05:37:23;1.13;;;1.00;;
13566;SDS011;6855;48.112;11.298;2024-03-23T05:39:49;1.80;;;1.10;;
13566;SDS011;6855;48.112;11.298;2024-03-23T05:42:17;2.60;;;1.23;;
13566;SDS011;6855;48.112;11.298;2024-03-23T05:44:43;1.50;;;1.20;;
13566;SDS011;6855;48.112;11.298;2024-03-23T05:47:11;2.40;;;1.07;;
13566;SDS011;6855;48.112;11.298;2024-03-23T05:49:39;3.43;;;1.20;;
13566;SDS011;6855;48.112;11.298;2024-03-23T05:52:07;1.60;;;1.40;;
13566;SDS011;6855;48.112;11.298;2024-03-23T05:54:34;2.70;;;1.20;;
13566;SDS011;6855;48.112;11.298;2024-03-23T05:57:01;1.53;;;1.13;;
13566;SDS011;6855;48.112;11.298;2024-03-23T05:59:28;2.00;;;1.10;;
13566;SDS011;6855;48.112;11.298;2024-03-23T06:01:56;1.60;;;1.07;;
13566;SDS011;6855;48.112;11.298;2024-03-23T06:04:22;2.70;;;1.37;;
13566;SDS011;6855;48.112;11.298;2024-03-23T06:06:51;2.00;;;1.30;;
13566;SDS011;6855;48.112;11.298;2024-03-23T06:09:17;1.43;;;1.30;;
13566;SDS011;6855;48.112;11.298;2024-03-23T06:11:45;1.50;;;1.03;;
13566;SDS011;6855;48.112;11.298;2024-03-23T06:14:11;1.47;;;1.37;;
13566;SDS011;6855;48.112;11.298;2024-03-23T06:16:38;2.40;;;1.10;;
13566;SDS011;6855;48.112;11.298;2024-03-23T06:19:04;1.90;;;1.23;;
13566;SDS011;6855;48.112;11.298;2024-03-23T06:21:32;2.83;;;1.20;;
13566;SDS011;6855;48.112;11.298;2024-03-23T06:23:59;1.43;;;1.20;;
13566;SDS011;6855;48.112;11.298;2024-03-23T06:26:27;2.23;;;1.33;;
13566;SDS011;6855;48.112;11.298;2024-03-23T06:28:53;3.83;;;1.17;;
13566;SDS011;6855;48.112;11.298;2024-03-23T06:31:21;1.93;;;1.10;;
13566;SDS011;6855;48.112;11.298;2024-03-23T06:33:47;1.30;;;1.20;;
13566;SDS011;6855;48.112;11.298;2024-03-23T06:36:14;3.93;;;1.37;;
13566;SDS011;6855;48.112;11.298;2024-03-23T06:38:40;2.10;;;1.43;;
13566;SDS011;6855;48.112;11.298;2024-03-23T06:41:09;3.73;;;1.50;;
13566;SDS011;6855;48.112;11.298;2024-03-23T06:43:35;1.20;;;1.10;;
13566;SDS011;6855;48.112;11.298;2024-03-23T06:46:03;7.30;;;1.27;;
13566;SDS011;6855;48.112;11.298;2024-03-23T06:48:29;2.90;;;1.10;;
13566;SDS011;6855;48.112;11.298;2024-03-23T06:50:57;2.40;;;1.57;;
13566;SDS011;6855;48.112;11.298;2024-03-23T06:53:23;3.23;;;1.50;;
13566;SDS011;6855;48.112;11.298;2024-03-23T06:55:50;2.50;;;1.20;;
13566;SDS011;6855;48.112;11.298;2024-03-23T06:58:19;2.93;;;1.23;;
13566;SDS011;6855;48.112;11.298;2024-03-23T07:00:46;1.43;;;1.33;;
13566;SDS011;6855;48.112;11.298;2024-03-23T07:03:12;1.80;;;1.27;;
13566;SDS011;6855;48.112;11.298;2024-03-23T07:05:39;2.80;;;1.47;;
13566;SDS011;6855;48.112;11.298;2024-03-23T07:08:06;1.30;;;1.20;;
13566;SDS011;6855;48.112;11.298;2024-03-23T07:10:33;2.33;;;1.50;;
13566;SDS011;6855;48.112;11.298;2024-03-23T07:12:59;2.60;;;1.20;;
13566;SDS011;6855;48.112;11.298;2024-03-23T07:15:27;4.53;;;2.30;;
13566;SDS011;6855;48.112;11.298;2024-03-23T07:17:54;2.50;;;1.13;;
13566;SDS011;6855;48.112;11.298;2024-03-23T07:20:21;3.70;;;1.53;;
13566;SDS011;6855;48.112;11.298;2024-03-23T07:22:47;2.27;;;1.67;;
13566;SDS011;6855;48.112;11.298;2024-03-23T07:25:14;4.93;;;1.70;;
13566;SDS011;6855;48.112;11.298;2024-03-23T07:27:41;1.87;;;1.20;;
13566;SDS011;6855;48.112;11.298;2024-03-23T07:30:09;3.03;;;1.40;;
13566;SDS011;6855;48.112;11.298;2024-03-23T07:32:36;2.13;;;1.20;;
13566;SDS011;6855;48.112;11.298;2024-03-23T07:35:03;2.00;;;1.40;;
13566;SDS011;6855;48.112;11.298;2024-03-23T07:37:30;2.87;;;1.87;;
13566;SDS011;6855;48.112;11.298;2024-03-23T07:39:58;3.50;;;1.63;;
13566;SDS011;6855;48.112;11.298;2024-03-23T07:42:24;3.30;;;1.13;;
13566;SDS011;6855;48.112;11.298;2024-03-23T07:44:52;2.10;;;1.30;;
13566;SDS011;6855;48.112;11.298;2024-03-23T07:47:20;1.40;;;1.30;;
13566;SDS011;6855;48.112;11.298;2024-03-23T07:49:49;3.00;;;2.17;;
13566;SDS011;6855;48.112;11.298;2024-03-23T07:52:15;2.10;;;1.47;;
13566;SDS011;6855;48.112;11.298;2024-03-23T07:54:42;4.73;;;1.90;;
13566;SDS011;6855;48.112;11.298;2024-03-23T07:57:09;3.77;;;1.47;;
13566;SDS011;6855;48.112;11.298;2024-03-23T07:59:36;3.00;;;1.53;;
13566;SDS011;6855;48.112;11.298;2024-03-23T08:02:02;3.20;;;1.80;;
13566;SDS011;6855;48.112;11.298;2024-03-23T08:04:30;1.80;;;1.57;;
13566;SDS011;6855;48.112;11.298;2024-03-23T08:06:57;3.67;;;1.80;;
13566;SDS011;6855;48.112;11.298;2024-03-23T08:09:24;6.80;;;1.80;;
13566;SDS011;6855;48.112;11.298;2024-03-23T08:11:51;2.63;;;1.77;;
13566;SDS011;6855;48.112;11.298;2024-03-23T08:14:18;2.10;;;1.40;;
13566;SDS011;6855;48.112;11.298;2024-03-23T08:16:46;6.33;;;1.90;;
13566;SDS011;6855;48.112;11.298;2024-03-23T08:19:16;2.00;;;1.47;;
13566;SDS011;6855;48.112;11.298;2024-03-23T08:21:43;4.60;;;1.67;;
13566;SDS011;6855;48.112;11.298;2024-03-23T08:24:11;2.53;;;1.87;;
13566;SDS011;6855;48.112;11.298;2024-03-23T08:26:37;3.23;;;1.83;;
13566;SDS011;6855;48.112;11.298;2024-03-23T08:29:05;2.40;;;2.13;;
13566;SDS011;6855;48.112;11.298;2024-03-23T08:31:31;4.47;;;2.13;;
13566;SDS011;6855;48.112;11.298;2024-03-23T08:33:58;2.03;;;1.67;;
13566;SDS011;6855;48.112;11.298;2024-03-23T08:36:24;2.60;;;1.80;;
13566;SDS011;6855;48.112;11.298;2024-03-23T08:38:51;3.90;;;2.37;;
13566;SDS011;6855;48.112;11.298;2024-03-23T08:41:20;5.20;;;2.20;;
13566;SDS011;6855;48.112;11.298;2024-03-23T08:43:47;2.27;;;2.07;;
13566;SDS011;6855;48.112;11.298;2024-03-23T08:46:14;2.83;;;2.17;;
13566;SDS011;6855;48.112;11.298;2024-03-23T08:48:44;4.07;;;2.60;;
13566;SDS011;6855;48.112;11.298;2024-03-23T08:51:11;4.50;;;2.33;;
13566;SDS011;6855;48.112;11.298;2024-03-23T08:53:39;2.70;;;2.00;;
13566;SDS011;6855;48.112;11.298;2024-03-23T08:56:06;3.23;;;1.80;;
13566;SDS011;6855;48.112;11.298;2024-03-23T08:58:35;3.70;;;2.30;;
13566;SDS011;6855;48.112;11.298;2024-03-23T09:01:04;3.53;;;2.73;;
13566;SDS011;6855;48.112;11.298;2024-03-23T09:03:32;5.83;;;2.60;;
13566;SDS011;6855;48.112;11.298;2024-03-23T09:05:59;4.20;;;2.20;;
13566;SDS011;6855;48.112;11.298;2024-03-23T09:08:26;3.20;;;2.43;;
13566;SDS011;6855;48.112;11.298;2024-03-23T09:10:53;2.90;;;2.13;;
13566;SDS011;6855;48.112;11.298;2024-03-23T09:13:20;2.50;;;2.17;;
13566;SDS011;6855;48.112;11.298;2024-03-23T09:15:48;3.33;;;2.37;;
13566;SDS011;6855;48.112;11.298;2024-03-23T09:18:16;2.23;;;1.97;;
13566;SDS011;6855;48.112;11.298;2024-03-23T09:20:42;3.33;;;2.00;;
13566;SDS011;6855;48.112;11.298;2024-03-23T09:23:09;3.17;;;1.60;;
13566;SDS011;6855;48.112;11.298;2024-03-23T09:25:36;2.37;;;1.10;;
13566;SDS011;6855;48.112;11.298;2024-03-23T09:28:04;2.70;;;2.03;;
13566;SDS011;6855;48.112;11.298;2024-03-23T09:30:31;1.20;;;0.90;;
13566;SDS011;6855;48.112;11.298;2024-03-23T09:33:00;0.70;;;0.60;;
13566;SDS011;6855;48.112;11.298;2024-03-23T09:35:26;0.73;;;0.70;;
13566;SDS011;6855;48.112;11.298;2024-03-23T09:37:54;2.50;;;0.77;;
13566;SDS011;6855;48.112;11.298;2024-03-23T09:40:20;1.30;;;0.90;;
13566;SDS011;6855;48.112;11.298;2024-03-23T09:42:49;1.17;;;0.70;;
13566;SDS011;6855;48.112;11.298;2024-03-23T09:45:17;1.10;;;0.90;;
13566;SDS011;6855;48.112;11.298;2024-03-23T09:47:44;2.47;;;1.10;;
13566;SDS011;6855;48.112;11.298;2024-03-23T09:50:12;0.80;;;0.80;;
13566;SDS011;6855;48.112;11.298;2024-03-23T09:52:39;1.57;;;1.00;;
13566;SDS011;6855;48.112;11.298;2024-03-23T09:55:07;1.20;;;0.80;;
13566;SDS011;6855;48.112;11.298;2024-03-23T09:57:34;1.80;;;0.90;;
13566;SDS011;6855;48.112;11.298;2024-03-23T10:00:01;2.87;;;1.00;;
13566;SDS011;6855;48.112;11.298;2024-03-23T10:02:28;2.20;;;1.20;;
13566;SDS011;6855;48.112;11.298;2024-03-23T10:04:55;0.70;;;0.70;;
13566;SDS011;6855;48.112;11.298;2024-03-23T10:07:23;1.10;;;0.83;;
13566;SDS011;6855;48.112;11.298;2024-03-23T10:09:50;1.07;;;0.80;;
13566;SDS011;6855;48.112;11.298;2024-03-23T10:12:18;1.50;;;0.80;;
13566;SDS011;6855;48.112;11.298;2024-03-23T10:14:45;1.33;;;0.80;;
13566;SDS011;6855;48.112;11.298;2024-03-23T10:17:13;3.47;;;1.03;;
13566;SDS011;6855;48.112;11.298;2024-03-23T10:19:40;2.30;;;0.80;;
13566;SDS011;6855;48.112;11.298;2024-03-23T10:22:17;1.27;;;0.70;;
13566;SDS011;6855;48.112;11.298;2024-03-23T10:37:15;1.00;;;0.70;;
13566;SDS011;6855;48.112;11.298;2024-03-23T10:40:31;2.50;;;0.70;;
13566;SDS011;6855;48.112;11.298;2024-03-23T10:49:06;1.67;;;0.50;;
13566;SDS011;6855;48.112;11.298;2024-03-23T10:51:42;0.83;;;0.70;;
13566;SDS011;6855;48.112;11.298;2024-03-23T10:54:30;1.10;;;0.60;;
13566;SDS011;6855;48.112;11.298;2024-03-23T11:00:33;0.60;;;0.60;;
13566;SDS011;6855;48.112;11.298;2024-03-23T11:03:35;1.50;;;0.90;;
13566;SDS011;6855;48.112;11.298;2024-03-23T11:11:55;1.73;;;1.07;;
13566;SDS011;6855;48.112;11.298;2024-03-23T11:14:23;1.10;;;1.00;;
13566;SDS011;6855;48.112;11.298;2024-03-23T11:16:52;2.10;;;0.90;;
13566;SDS011;6855;48.112;11.298;2024-03-23T11:19:35;1.03;;;0.83;;
13566;SDS011;6855;48.112;11.298;2024-03-23T11:22:01;2.40;;;1.10;;
13566;SDS011;6855;48.112;11.298;2024-03-23T11:24:30;2.50;;;0.90;;
13566;SDS011;6855;48.112;11.298;2024-03-23T11:26:57;1.43;;;0.70;;
13566;SDS011;6855;48.112;11.298;2024-03-23T11:32:32;1.20;;;0.93;;
13566;SDS011;6855;48.112;11.298;2024-03-23T11:35:02;2.60;;;0.90;;
13566;SDS011;6855;48.112;11.298;2024-03-23T11:42:13;1.00;;;0.90;;
13566;SDS011;6855;48.112;11.298;2024-03-23T11:43:37;2.03;;;1.00;;
13566;SDS011;6855;48.112;11.298;2024-03-23T11:46:30;2.00;;;1.10;;
13566;SDS011;6855;48.112;11.298;2024-03-23T11:52:06;2.90;;;1.50;;
13566;SDS011;6855;48.112;11.298;2024-03-23T11:56:44;3.90;;;1.47;;
13566;SDS011;6855;48.112;11.298;2024-03-23T12:01:25;4.23;;;1.70;;
13566;SDS011;6855;48.112;11.298;2024-03-23T12:03:59;2.87;;;1.50;;
13566;SDS011;6855;48.112;11.298;2024-03-23T12:09:44;4.87;;;1.40;;
13566;SDS011;6855;48.112;11.298;2024-03-23T12:12:14;4.73;;;1.43;;
13566;SDS011;6855;48.112;11.298;2024-03-23T12:14:41;1.43;;;1.17;;
13566;SDS011;6855;48.112;11.298;2024-03-23T12:17:13;1.97;;;1.10;;
13566;SDS011;6855;48.112;11.298;2024-03-23T12:19:39;2.70;;;1.63;;
13566;SDS011;6855;48.112;11.298;2024-03-23T12:22:07;1.90;;;1.50;;
13566;SDS011;6855;48.112;11.298;2024-03-23T12:24:34;2.33;;;1.50;;
13566;SDS011;6855;48.112;11.298;2024-03-23T12:27:01;4.13;;;1.50;;
13566;SDS011;6855;48.112;11.298;2024-03-23T12:29:28;2.70;;;1.47;;
13566;SDS011;6855;48.112;11.298;2024-03-23T12:31:56;3.53;;;1.40;;
13566;SDS011;6855;48.112;11.298;2024-03-23T12:34:24;6.00;;;1.47;;
13566;SDS011;6855;48.112;11.298;2024-03-23T12:36:52;3.93;;;1.43;;
13566;SDS011;6855;48.112;11.298;2024-03-23T12:39:19;5.40;;;1.50;;
13566;SDS011;6855;48.112;11.298;2024-03-23T12:41:46;3.03;;;1.97;;
13566;SDS011;6855;48.112;11.298;2024-03-23T12:44:12;2.27;;;1.57;;
13566;SDS011;6855;48.112;11.298;2024-03-23T12:46:40;5.23;;;1.30;;
13566;SDS011;6855;48.112;11.298;2024-03-23T12:49:06;3.83;;;1.40;;
13566;SDS011;6855;48.112;11.298;2024-03-23T12:51:35;2.97;;;1.33;;
13566;SDS011;6855;48.112;11.298;2024-03-23T12:54:01;6.57;;;1.70;;
13566;SDS011;6855;48.112;11.298;2024-03-23T12:56:28;2.50;;;1.50;;
13566;SDS011;6855;48.112;11.298;2024-03-23T12:58:54;5.63;;;2.00;;
13566;SDS011;6855;48.112;11.298;2024-03-23T13:01:22;6.43;;;1.67;;
13566;SDS011;6855;48.112;11.298;2024-03-23T13:03:48;4.90;;;1.73;;
13566;SDS011;6855;48.112;11.298;2024-03-23T13:06:15;3.27;;;1.50;;
13566;SDS011;6855;48.112;11.298;2024-03-23T13:08:45;2.70;;;1.40;;
13566;SDS011;6855;48.112;11.298;2024-03-23T13:11:12;4.50;;;1.63;;
13566;SDS011;6855;48.112;11.298;2024-03-23T13:13:39;4.53;;;1.90;;
13566;SDS011;6855;48.112;11.298;2024-03-23T13:16:07;3.60;;;1.70;;
13566;SDS011;6855;48.112;11.298;2024-03-23T13:18:33;4.93;;;1.53;;
13566;SDS011;6855;48.112;11.298;2024-03-23T13:21:00;9.97;;;1.87;;
13566;SDS011;6855;48.112;11.298;2024-03-23T13:23:27;3.00;;;1.87;;
13566;SDS011;6855;48.112;11.298;2024-03-23T13:25:56;2.47;;;1.40;;
13566;SDS011;6855;48.112;11.298;2024-03-23T13:28:23;2.80;;;1.10;;
13566;SDS011;6855;48.112;11.298;2024-03-23T13:30:51;4.20;;;1.80;;
13566;SDS011;6855;48.112;11.298;2024-03-23T13:33:17;3.20;;;1.50;;
13566;SDS011;6855;48.112;11.298;2024-03-23T13:35:50;14.10;;;2.43;;
13566;SDS011;6855;48.112;11.298;2024-03-23T13:38:17;2.23;;;1.50;;
13566;SDS011;6855;48.112;11.298;2024-03-23T13:40:52;3.53;;;1.80;;
13566;SDS011;6855;48.112;11.298;2024-03-23T13:43:20;5.97;;;1.67;;
13566;SDS011;6855;48.112;11.298;2024-03-23T13:45:48;8.63;;;2.00;;
13566;SDS011;6855;48.112;11.298;2024-03-23T13:48:15;1.80;;;1.40;;
13566;SDS011;6855;48.112;11.298;2024-03-23T13:50:43;6.00;;;1.80;;
13566;SDS011;6855;48.112;11.298;2024-03-23T13:53:09;2.17;;;1.60;;
13566;SDS011;6855;48.112;11.298;2024-03-23T13:55:36;4.23;;;1.60;;
13566;SDS011;6855;48.112;11.298;2024-03-23T13:58:03;4.30;;;1.53;;
13566;SDS011;6855;48.112;11.298;2024-03-23T14:00:31;3.80;;;1.33;;
13566;SDS011;6855;48.112;11.298;2024-03-23T14:02:57;3.50;;;1.30;;
13566;SDS011;6855;48.112;11.298;2024-03-23T14:05:25;4.13;;;1.43;;
13566;SDS011;6855;48.112;11.298;2024-03-23T14:07:51;4.40;;;1.73;;
13566;SDS011;6855;48.112;11.298;2024-03-23T14:10:18;8.43;;;1.73;;
13566;SDS011;6855;48.112;11.298;2024-03-23T14:12:44;6.93;;;1.40;;
13566;SDS011;6855;48.112;11.298;2024-03-23T14:15:11;5.07;;;1.60;;
13566;SDS011;6855;48.112;11.298;2024-03-23T14:17:42;1.73;;;1.30;;
13566;SDS011;6855;48.112;11.298;2024-03-23T14:20:10;2.13;;;1.10;;
13566;SDS011;6855;48.112;11.298;2024-03-23T14:22:36;2.40;;;1.40;;
13566;SDS011;6855;48.112;11.298;2024-03-23T14:25:06;19.23;;;2.00;;
13566;SDS011;6855;48.112;11.298;2024-03-23T14:27:32;3.70;;;1.37;;
13566;SDS011;6855;48.112;11.298;2024-03-23T14:30:02;8.13;;;1.80;;
13566;SDS011;6855;48.112;11.298;2024-03-23T14:32:29;9.23;;;1.70;;
13566;SDS011;6855;48.112;11.298;2024-03-23T14:35:00;4.20;;;1.60;;
13566;SDS011;6855;48.112;11.298;2024-03-23T14:37:26;4.50;;;2.40;;
13566;SDS011;6855;48.112;11.298;2024-03-23T14:39:55;2.70;;;1.20;;
13566;SDS011;6855;48.112;11.298;2024-03-23T14:42:21;8.40;;;2.00;;
13566;SDS011;6855;48.112;11.298;2024-03-23T14:44:49;4.73;;;2.03;;
13566;SDS011;6855;48.112;11.298;2024-03-23T14:47:16;3.03;;;1.50;;
13566;SDS011;6855;48.112;11.298;2024-03-23T14:49:43;8.77;;;1.30;;
13566;SDS011;6855;48.112;11.298;2024-03-23T14:52:13;6.60;;;1.20;;
13566;SDS011;6855;48.112;11.298;2024-03-23T14:54:40;3.80;;;1.30;;
13566;SDS011;6855;48.112;11.298;2024-03-23T14:57:06;1.60;;;1.30;;
13566;SDS011;6855;48.112;11.298;2024-03-23T14:59:34;3.17;;;1.77;;
13566;SDS011;6855;48.112;11.298;2024-03-23T15:02:00;3.33;;;1.80;;
13566;SDS011;6855;48.112;11.298;2024-03-23T15:04:27;7.30;;;1.67;;
13566;SDS011;6855;48.112;11.298;2024-03-23T15:06:53;2.10;;;1.30;;
13566;SDS011;6855;48.112;11.298;2024-03-23T15:09:22;7.07;;;1.57;;
13566;SDS011;6855;48.112;11.298;2024-03-23T15:11:48;5.80;;;1.60;;
13566;SDS011;6855;48.112;11.298;2024-03-23T15:14:15;2.60;;;1.40;;
13566;SDS011;6855;48.112;11.298;2024-03-23T15:16:42;3.30;;;1.50;;
13566;SDS011;6855;48.112;11.298;2024-03-23T15:19:09;4.50;;;1.83;;
13566;SDS011;6855;48.112;11.298;2024-03-23T15:21:35;4.17;;;2.03;;
13566;SDS011;6855;48.112;11.298;2024-03-23T15:24:02;5.50;;;2.00;;
13566;SDS011;6855;48.112;11.298;2024-03-23T15:26:30;6.73;;;1.70;;
13566;SDS011;6855;48.112;11.298;2024-03-23T15:28:57;9.50;;;1.70;;
13566;SDS011;6855;48.112;11.298;2024-03-23T15:31:36;2.97;;;1.30;;
13566;SDS011;6855;48.112;11.298;2024-03-23T15:34:03;9.20;;;1.97;;
13566;SDS011;6855;48.112;11.298;2024-03-23T15:36:30;2.13;;;1.50;;
13566;SDS011;6855;48.112;11.298;2024-03-23T15:38:57;3.90;;;1.50;;
13566;SDS011;6855;48.112;11.298;2024-03-23T15:41:23;2.93;;;1.50;;
13566;SDS011;6855;48.112;11.298;2024-03-23T15:43:52;2.50;;;1.73;;
13566;SDS011;6855;48.112;11.298;2024-03-23T15:46:18;3.73;;;1.73;;
13566;SDS011;6855;48.112;11.298;2024-03-23T15:48:45;2.70;;;1.57;;
13566;SDS011;6855;48.112;11.298;2024-03-23T15:51:12;3.10;;;1.27;;
13566;SDS011;6855;48.112;11.298;2024-03-23T15:53:40;2.87;;;1.80;;
13566;SDS011;6855;48.112;11.298;2024-03-23T15:56:06;5.87;;;1.63;;
13566;SDS011;6855;48.112;11.298;2024-03-23T15:58:33;7.97;;;1.80;;
13566;SDS011;6855;48.112;11.298;2024-03-23T16:01:01;4.63;;;2.30;;
13566;SDS011;6855;48.112;11.298;2024-03-23T16:03:29;3.37;;;1.70;;
13566;SDS011;6855;48.112;11.298;2024-03-23T16:05:56;3.10;;;1.70;;
13566;SDS011;6855;48.112;11.298;2024-03-23T16:08:23;3.70;;;1.80;;
13566;SDS011;6855;48.112;11.298;2024-03-23T16:10:49;3.17;;;1.70;;
13566;SDS011;6855;48.112;11.298;2024-03-23T16:13:17;4.20;;;1.40;;
13566;SDS011;6855;48.112;11.298;2024-03-23T16:15:44;6.27;;;1.80;;
13566;SDS011;6855;48.112;11.298;2024-03-23T16:18:13;4.97;;;1.60;;
13566;SDS011;6855;48.112;11.298;2024-03-23T16:20:39;2.40;;;1.33;;
13566;SDS011;6855;48.112;11.298;2024-03-23T16:23:06;9.03;;;1.90;;
13566;SDS011;6855;48.112;11.298;2024-03-23T16:25:32;6.63;;;1.63;;
13566;SDS011;6855;48.112;11.298;2024-03-23T16:27:59;3.40;;;1.47;;